Terminal Aerodrome Forecast
Issued by NWS Charleston, SC

Home | Current Version | Previous Version | Text Only | Print | Product List | Glossary On
Versions: 1 2 3 4 5 6 7 8 9 10 11 12 13 14 15 16 17 18 19 20 21 22 23 24
000
FTUS42 KCHS 190528
TAFCHS
TAF
KCHS 190528Z 1906/2006 VRB03KT P6SM SCT006 BKN040
     FM190900 VRB03KT 4SM BR VCSH SCT004 OVC010
     FM191500 17008KT 5SM SHRA BR SCT015 BKN030
     FM191800 18012KT P6SM SCT025 BKN035
      TEMPO 1920/1924 4SM SHRA BR SCT008 BKN015=

USA.gov is the U.S. government's official web portal to all federal, state and local government web resources and services.